createdAt,value
2023-01-20T00:00:31.177Z,98066.56
2023-01-20T00:02:36.543Z,98065.72
2023-01-20T00:04:42.721Z,98072.34
2023-01-20T00:06:48.167Z,98078.09
2023-01-20T00:08:57.157Z,98082.22
2023-01-20T00:11:07.458Z,98087.97
2023-01-20T00:13:14.946Z,98082.25
2023-01-20T00:15:19.945Z,98082.28
2023-01-20T00:17:24.899Z,98084.72
2023-01-20T00:19:30.025Z,98090.50
2023-01-20T00:21:35.732Z,98093.78
2023-01-20T00:23:41.977Z,98090.44
2023-01-20T00:25:46.866Z,98097.03
2023-01-20T00:27:53.564Z,98103.59
2023-01-20T00:30:01.402Z,98106.09
2023-01-20T00:32:06.735Z,98106.91
2023-01-20T00:34:15.172Z,98102.78
2023-01-20T00:36:22.903Z,98107.69
2023-01-20T00:38:28.484Z,98112.63
2023-01-20T00:40:33.396Z,98119.19
2023-01-20T00:42:38.614Z,98117.53
2023-01-20T00:44:43.495Z,98115.03
2023-01-20T00:46:51.417Z,98119.97
2023-01-20T00:48:56.695Z,98121.59
2023-01-20T00:51:01.665Z,98129.00
2023-01-20T00:53:07.478Z,98120.78
2023-01-20T00:55:13.409Z,98124.06
2023-01-20T00:57:18.774Z,98129.84
2023-01-20T00:59:23.981Z,98129.88
2023-01-20T01:01:29.307Z,98133.91
2023-01-20T01:03:36.844Z,98141.34
2023-01-20T01:05:42.124Z,98134.75
2023-01-20T01:07:47.262Z,98150.44
2023-01-20T01:09:53.177Z,98145.47
2023-01-20T01:11:58.275Z,98150.38
2023-01-20T01:14:03.468Z,98155.31
2023-01-20T01:16:13.994Z,98152.84
2023-01-20T01:18:18.998Z,98152.91
2023-01-20T01:20:28.246Z,98145.53
2023-01-20T01:22:36.756Z,98162.72
2023-01-20T01:24:41.882Z,98155.31
2023-01-20T01:26:47.076Z,98161.13
2023-01-20T01:28:53.486Z,98152.09
2023-01-20T01:31:02.330Z,98157.88
2023-01-20T01:33:07.797Z,98166.97
2023-01-20T01:35:13.413Z,98157.94
2023-01-20T01:37:21.992Z,98152.16
2023-01-20T01:39:27.737Z,98162.84
2023-01-20T01:41:33.859Z,98156.31
2023-01-20T01:43:40.578Z,98150.50
2023-01-20T01:45:46.238Z,98168.59
2023-01-20T01:47:57.328Z,98156.19
2023-01-20T01:50:02.748Z,98159.47
2023-01-20T01:52:12.600Z,98166.88
2023-01-20T01:54:24.208Z,98165.16
2023-01-20T01:56:31.334Z,98166.84
2023-01-20T01:58:40.497Z,98166.06
2023-01-20T02:00:46.352Z,98169.41
2023-01-20T02:02:52.836Z,98171.91
2023-01-20T02:04:57.842Z,98172.75
2023-01-20T02:07:08.882Z,98170.34
2023-01-20T02:09:14.553Z,98174.50
2023-01-20T02:11:23.678Z,98172.88
2023-01-20T02:13:28.650Z,98177.84
2023-01-20T02:15:42.569Z,98168.78
2023-01-20T02:18:01.544Z,98172.88
2023-01-20T02:20:33.549Z,98176.19
2023-01-20T02:22:47.752Z,98170.38
2023-01-20T02:25:38.837Z,98165.44
2023-01-20T02:28:32.011Z,98172.81
2023-01-20T02:31:17.449Z,98180.19
2023-01-20T02:33:32.818Z,98179.38
2023-01-20T02:35:43.362Z,98179.34
2023-01-20T02:37:54.362Z,98181.81
2023-01-20T02:40:14.778Z,98182.63
2023-01-20T02:42:25.097Z,98185.91
2023-01-20T02:44:39.612Z,98182.56
2023-01-20T02:46:53.339Z,98183.38
2023-01-20T02:49:08.479Z,98189.09
2023-01-20T02:51:20.753Z,98188.19
2023-01-20T02:53:28.627Z,98177.41
2023-01-20T02:55:41.282Z,98184.75
2023-01-20T02:57:50.778Z,98191.22
2023-01-20T03:00:10.575Z,98199.31
2023-01-20T03:02:20.446Z,98201.56
2023-01-20T03:04:34.500Z,98190.09
2023-01-20T03:06:45.299Z,98197.59
2023-01-20T03:08:54.168Z,98191.84
2023-01-20T03:11:05.321Z,98201.72
2023-01-20T03:13:21.906Z,98214.78
2023-01-20T03:15:31.484Z,98208.16
2023-01-20T03:17:37.811Z,98209.19
2023-01-20T03:19:45.941Z,98206.72
2023-01-20T03:21:51.358Z,98217.41
2023-01-20T03:24:03.494Z,98215.81
2023-01-20T03:26:14.203Z,98220.75
2023-01-20T03:28:19.638Z,98218.41
2023-01-20T03:30:25.699Z,98226.63
2023-01-20T03:32:32.257Z,98228.28
2023-01-20T03:34:41.039Z,98232.41
2023-01-20T03:36:49.800Z,98231.53
2023-01-20T03:38:56.629Z,98234.81
2023-01-20T03:41:08.210Z,98231.56
2023-01-20T03:43:22.586Z,98234.81
2023-01-20T03:45:40.313Z,98238.84
2023-01-20T03:47:59.520Z,98237.97
2023-01-20T03:50:15.198Z,98244.56
2023-01-20T03:52:47.837Z,98240.41
2023-01-20T03:55:00.122Z,98250.97
2023-01-20T03:57:11.982Z,98254.09
2023-01-20T03:59:20.975Z,98248.19
2023-01-20T04:01:45.401Z,98250.53
2023-01-20T04:03:54.828Z,98260.31
2023-01-20T04:06:02.679Z,98251.97
2023-01-20T04:08:13.419Z,98260.16
2023-01-20T04:10:20.308Z,98254.34
2023-01-20T04:12:25.595Z,98258.41
2023-01-20T04:14:31.327Z,98268.09
2023-01-20T04:16:36.382Z,98263.06
2023-01-20T04:18:44.560Z,98262.22
2023-01-20T04:20:53.144Z,98276.03
2023-01-20T04:23:01.420Z,98280.69
2023-01-20T04:25:17.821Z,98288.00
2023-01-20T04:27:22.784Z,98288.81
2023-01-20T04:29:27.690Z,98285.53
2023-01-20T04:31:33.010Z,98288.75
2023-01-20T04:33:40.247Z,98287.16
2023-01-20T04:35:48.325Z,98291.31
2023-01-20T04:37:53.238Z,98287.13
2023-01-20T04:39:58.505Z,98294.53
2023-01-20T04:42:06.682Z,98300.19
2023-01-20T04:44:11.595Z,98290.94
2023-01-20T04:46:18.160Z,98306.81
2023-01-20T04:48:23.077Z,98304.38
2023-01-20T04:50:28.615Z,98307.13
2023-01-20T04:52:33.615Z,98303.03
2023-01-20T04:54:38.526Z,98303.94
2023-01-20T04:58:54.399Z,98311.50
2023-01-20T05:00:59.684Z,98314.00
2023-01-20T05:03:06.537Z,98319.72
2023-01-20T05:05:12.389Z,98317.38
2023-01-20T05:07:17.354Z,98318.25
2023-01-20T05:09:22.794Z,98325.69
2023-01-20T05:11:28.075Z,98324.06
2023-01-20T05:13:33.749Z,98328.22
2023-01-20T05:15:42.764Z,98325.88
2023-01-20T05:17:47.840Z,98327.72
2023-01-20T05:19:52.759Z,98336.72
2023-01-20T05:21:57.689Z,98337.50
2023-01-20T05:24:02.982Z,98344.03
2023-01-20T05:26:08.413Z,98347.31
2023-01-20T05:28:14.694Z,98347.31
2023-01-20T05:30:20.845Z,98356.34
2023-01-20T05:32:28.394Z,98365.38
2023-01-20T05:34:33.626Z,98358.81
2023-01-20T05:36:38.673Z,98358.03
2023-01-20T05:38:43.923Z,98360.53
2023-01-20T05:40:49.131Z,98364.63
2023-01-20T05:45:01.421Z,98373.63
2023-01-20T05:47:06.384Z,98372.06
2023-01-20T05:49:14.316Z,98381.97
2023-01-20T05:51:19.610Z,98387.75
2023-01-20T05:53:25.190Z,98386.97
2023-01-20T05:55:30.052Z,98389.56
2023-01-20T05:57:35.483Z,98397.81
2023-01-20T05:59:40.412Z,98403.56
2023-01-20T06:01:45.359Z,98401.19
2023-01-20T06:03:50.486Z,98398.81
2023-01-20T06:06:03.265Z,98403.78
2023-01-20T06:08:09.713Z,98407.13
2023-01-20T06:10:15.315Z,98412.06
2023-01-20T06:12:20.149Z,98411.97
2023-01-20T06:14:25.351Z,98414.44
2023-01-20T06:16:30.712Z,98410.41
2023-01-20T06:18:37.025Z,98406.31
2023-01-20T06:20:41.932Z,98414.44
2023-01-20T06:22:49.800Z,98412.00
2023-01-20T06:24:54.821Z,98417.03
2023-01-20T06:26:59.971Z,98415.34
2023-01-20T06:29:04.851Z,98426.94
2023-01-20T06:31:13.215Z,98430.19
2023-01-20T06:33:18.552Z,98429.25
2023-01-20T06:35:23.773Z,98430.13
2023-01-20T06:37:29.645Z,98433.41
2023-01-20T06:39:37.685Z,98436.63
2023-01-20T06:41:43.087Z,98444.00
2023-01-20T06:43:50.136Z,98439.81
2023-01-20T06:45:55.337Z,98446.34
2023-01-20T06:48:00.539Z,98446.28
2023-01-20T06:50:05.478Z,98442.88
2023-01-20T06:52:10.734Z,98442.81
2023-01-20T06:54:15.585Z,98446.03
2023-01-20T06:56:23.678Z,98450.06
2023-01-20T06:58:30.429Z,98445.84
2023-01-20T07:00:35.945Z,98455.63
2023-01-20T07:02:40.846Z,98463.78
2023-01-20T07:04:45.960Z,98468.72
2023-01-20T07:06:50.969Z,98465.41
2023-01-20T07:08:58.849Z,98471.97
2023-01-20T07:11:03.917Z,98470.28
2023-01-20T07:13:11.360Z,98478.56
2023-01-20T07:15:16.666Z,98483.41
2023-01-20T07:17:21.980Z,98481.69
2023-01-20T07:19:27.226Z,98493.16
2023-01-20T07:21:32.176Z,98479.97
2023-01-20T07:23:37.048Z,98479.16
2023-01-20T07:25:41.998Z,98478.31
2023-01-20T07:27:47.284Z,98490.63
2023-01-20T07:29:54.745Z,98488.13
2023-01-20T07:32:02.367Z,98489.66
2023-01-20T07:34:09.178Z,98486.31
2023-01-20T07:36:18.725Z,98485.41
2023-01-20T07:38:25.687Z,98487.78
2023-01-20T07:40:32.894Z,98498.28
2023-01-20T07:42:40.749Z,98503.91
2023-01-20T07:44:45.607Z,98503.78
2023-01-20T07:46:54.484Z,98498.06
2023-01-20T07:49:00.039Z,98494.09
2023-01-20T07:51:08.804Z,98496.75
2023-01-20T07:53:14.511Z,98500.19
2023-01-20T07:55:19.650Z,98506.13
2023-01-20T07:57:24.919Z,98504.63
2023-01-20T07:59:30.650Z,98513.09
2023-01-20T08:01:38.813Z,98517.38
2023-01-20T08:03:46.704Z,98525.06
2023-01-20T08:05:51.583Z,98526.88
2023-01-20T08:07:57.538Z,98533.53
2023-01-20T08:10:02.438Z,98531.22
2023-01-20T08:12:08.832Z,98541.34
2023-01-20T08:14:13.748Z,98540.69
2023-01-20T08:16:20.879Z,98543.72
2023-01-20T08:18:26.840Z,98546.94
2023-01-20T08:20:34.279Z,98553.56
2023-01-20T08:22:39.285Z,98558.53
2023-01-20T08:24:44.392Z,98559.38
2023-01-20T08:26:49.297Z,98563.66
2023-01-20T08:28:56.302Z,98569.41
2023-01-20T08:31:08.285Z,98564.47
2023-01-20T08:33:13.307Z,98570.31
2023-01-20T08:35:19.319Z,98573.47
2023-01-20T08:37:26.962Z,98567.66
2023-01-20T08:39:32.655Z,98575.03
2023-01-20T08:41:42.456Z,98576.66
2023-01-20T08:43:49.222Z,98579.06
2023-01-20T08:46:03.440Z,98578.19
2023-01-20T08:48:09.977Z,98581.34
2023-01-20T08:50:19.295Z,98583.06
2023-01-20T08:52:28.845Z,98581.59
2023-01-20T08:54:37.158Z,98576.81
2023-01-20T08:58:51.986Z,98589.16
2023-01-20T09:00:57.397Z,98595.19
2023-01-20T09:03:02.318Z,98598.63
2023-01-20T09:05:08.771Z,98609.47
2023-01-20T09:07:14.433Z,98601.19
2023-01-20T09:09:24.544Z,98602.97
2023-01-20T09:11:29.810Z,98607.94
2023-01-20T09:13:35.773Z,98599.78
2023-01-20T09:15:42.941Z,98599.94
2023-01-20T09:17:48.673Z,98596.16
2023-01-20T09:19:54.735Z,98597.22
2023-01-20T09:22:00.424Z,98597.28
2023-01-20T09:24:06.016Z,98605.50
2023-01-20T09:26:19.715Z,98608.78
2023-01-20T09:28:35.827Z,98615.31
2023-01-20T09:30:42.750Z,98613.88
2023-01-20T09:32:48.153Z,98620.78
2023-01-20T09:34:53.091Z,98619.28
2023-01-20T09:37:20.964Z,98621.13
2023-01-20T09:39:39.249Z,98618.09
2023-01-20T09:42:14.989Z,98619.13
2023-01-20T09:44:48.346Z,98623.41
2023-01-20T09:47:22.913Z,98621.81
2023-01-20T09:49:51.650Z,98616.84
2023-01-20T09:52:19.537Z,98624.19
2023-01-20T09:54:33.764Z,98624.16
2023-01-20T09:56:48.963Z,98617.72
2023-01-20T09:59:01.190Z,98621.78
2023-01-20T10:01:15.495Z,98614.34
2023-01-20T10:03:36.989Z,98628.34
2023-01-20T10:05:43.071Z,98623.41
2023-01-20T10:07:55.692Z,98617.59
2023-01-20T10:10:05.815Z,98616.81
2023-01-20T10:12:22.728Z,98620.13
2023-01-20T10:14:36.603Z,98622.56
2023-01-20T10:16:47.578Z,98626.84
2023-01-20T10:18:58.318Z,98625.22
2023-01-20T10:21:08.552Z,98626.91
2023-01-20T10:23:19.714Z,98634.41
2023-01-20T10:25:30.891Z,98635.09
2023-01-20T10:27:45.958Z,98638.44
2023-01-20T10:29:58.333Z,98641.88
2023-01-20T10:32:08.316Z,98633.53
2023-01-20T10:34:21.231Z,98646.69
2023-01-20T10:36:32.393Z,98641.75
2023-01-20T10:38:46.347Z,98641.88
2023-01-20T10:40:59.012Z,98642.81
2023-01-20T10:43:15.675Z,98641.28
2023-01-20T10:45:30.444Z,98643.66
2023-01-20T10:47:50.548Z,98641.97
2023-01-20T10:50:23.778Z,98640.31
2023-01-20T10:52:47.908Z,98641.94
2023-01-20T10:55:05.333Z,98642.84
2023-01-20T10:57:17.218Z,98646.09
2023-01-20T10:59:34.612Z,98649.41
2023-01-20T11:01:40.654Z,98646.97
2023-01-20T11:03:49.005Z,98643.72
2023-01-20T11:05:55.858Z,98644.56
2023-01-20T11:08:04.223Z,98657.00
2023-01-20T11:10:19.464Z,98657.88
2023-01-20T11:12:30.548Z,98649.59
2023-01-20T11:14:38.702Z,98652.06
2023-01-20T11:16:47.270Z,98654.59
2023-01-20T11:19:02.424Z,98657.19
2023-01-20T11:21:11.983Z,98655.53
2023-01-20T11:23:26.966Z,98663.81
2023-01-20T11:25:32.833Z,98657.22
2023-01-20T11:27:45.312Z,98663.78
2023-01-20T11:29:58.605Z,98656.34
2023-01-20T11:32:03.941Z,98665.47
2023-01-20T11:34:26.990Z,98662.13
2023-01-20T11:36:33.263Z,98661.31
2023-01-20T11:38:47.627Z,98668.78
2023-01-20T11:40:57.521Z,98669.59
2023-01-20T11:43:02.755Z,98676.22
2023-01-20T11:45:33.024Z,98676.97
2023-01-20T11:47:40.256Z,98663.56
2023-01-20T11:49:46.019Z,98673.50
2023-01-20T11:51:56.634Z,98671.91
2023-01-20T11:54:16.890Z,98676.00
2023-01-20T11:56:26.652Z,98673.50
2023-01-20T11:58:50.406Z,98675.16
2023-01-20T12:01:05.379Z,98676.91
2023-01-20T12:04:19.021Z,98676.94
2023-01-20T12:06:29.260Z,98678.63
2023-01-20T12:08:46.932Z,98673.63
2023-01-20T12:10:53.988Z,98673.66
2023-01-20T12:13:06.538Z,98673.69
2023-01-20T12:15:20.147Z,98677.06
2023-01-20T12:17:48.792Z,98674.47
2023-01-20T12:20:18.353Z,98680.31
2023-01-20T12:22:30.788Z,98682.78
2023-01-20T12:24:58.559Z,98681.97
2023-01-20T12:27:05.360Z,98679.56
2023-01-20T12:29:23.340Z,98690.28
2023-01-20T12:31:30.112Z,98679.56
2023-01-20T12:33:41.646Z,98677.09
2023-01-20T12:36:17.080Z,98685.38
2023-01-20T12:38:24.343Z,98688.69
2023-01-20T12:40:43.138Z,98687.06
2023-01-20T12:43:36.085Z,98690.38
2023-01-20T12:45:59.659Z,98687.09
2023-01-20T12:48:23.814Z,98688.72
2023-01-20T12:53:23.250Z,98688.75
2023-01-20T12:55:46.135Z,98690.41
2023-01-20T12:58:06.611Z,98692.91
2023-01-20T13:00:42.222Z,98693.72
2023-01-20T13:03:24.316Z,98696.16
2023-01-20T13:06:01.330Z,98700.28
2023-01-20T13:08:17.865Z,98698.66
2023-01-20T13:10:50.215Z,98701.97
2023-01-20T13:13:08.163Z,98697.84
2023-01-20T13:15:29.116Z,98698.66
2023-01-20T13:17:41.816Z,98701.97
2023-01-20T13:19:49.628Z,98707.72
2023-01-20T13:22:07.691Z,98701.91
2023-01-20T13:24:29.288Z,98703.53
2023-01-20T13:26:36.563Z,98708.50
2023-01-20T13:28:52.857Z,98705.13
2023-01-20T13:31:00.599Z,98701.06
2023-01-20T13:33:08.933Z,98701.91
2023-01-20T13:35:46.910Z,98704.38
2023-01-20T13:37:57.709Z,98700.22
2023-01-20T13:40:04.204Z,98707.69
2023-01-20T13:42:50.391Z,98713.44
2023-01-20T13:45:22.561Z,98712.59
2023-01-20T13:47:54.460Z,98717.59
2023-01-20T13:50:00.116Z,98716.59
2023-01-20T13:52:05.974Z,98715.06
2023-01-20T13:54:52.360Z,98720.03
2023-01-20T13:57:49.174Z,98720.06
2023-01-20T13:59:55.319Z,98721.69
2023-01-20T14:02:00.922Z,98716.75
2023-01-20T14:04:08.098Z,98726.66
2023-01-20T14:06:26.209Z,98730.00
2023-01-20T14:08:34.306Z,98723.34
2023-01-20T14:10:42.795Z,98732.44
2023-01-20T14:12:48.247Z,98731.63
2023-01-20T14:14:54.175Z,98735.66
2023-01-20T14:17:06.167Z,98735.66
2023-01-20T14:19:30.577Z,98738.19
2023-01-20T14:21:44.249Z,98735.66
2023-01-20T14:23:49.746Z,98739.78
2023-01-20T14:26:14.377Z,98736.50
2023-01-20T14:28:22.846Z,98736.47
2023-01-20T14:30:31.342Z,98740.56
2023-01-20T14:32:39.688Z,98743.88
2023-01-20T14:34:45.948Z,98749.63
2023-01-20T14:36:51.658Z,98749.63
2023-01-20T14:39:04.187Z,98752.84
2023-01-20T14:41:27.340Z,98757.00
2023-01-20T14:43:33.103Z,98760.38
2023-01-20T14:45:40.111Z,98754.56
2023-01-20T14:47:45.636Z,98762.16
2023-01-20T14:49:53.900Z,98764.00
2023-01-20T14:51:59.491Z,98766.56
2023-01-20T14:54:41.321Z,98753.34
2023-01-20T14:56:53.136Z,98769.84
2023-01-20T14:58:59.789Z,98776.44
2023-01-20T15:01:07.749Z,98773.06
2023-01-20T15:03:21.105Z,98781.25
2023-01-20T15:05:30.768Z,98783.59
2023-01-20T15:07:37.065Z,98780.19
2023-01-20T15:09:51.798Z,98784.25
2023-01-20T15:12:40.801Z,98781.69
2023-01-20T15:14:58.246Z,98784.06
2023-01-20T15:17:04.355Z,98783.13
2023-01-20T15:19:35.716Z,98788.84
2023-01-20T15:21:41.890Z,98783.72
2023-01-20T15:23:52.533Z,98789.38
2023-01-20T15:25:57.782Z,98790.84
2023-01-20T15:28:06.698Z,98800.63
2023-01-20T15:30:24.456Z,98801.22
2023-01-20T15:32:31.197Z,98806.06
2023-01-20T15:34:36.760Z,98802.63
2023-01-20T15:36:42.544Z,98815.75
2023-01-20T15:38:48.733Z,98817.22
2023-01-20T15:40:54.515Z,98808.06
2023-01-20T15:43:03.846Z,98814.59
2023-01-20T15:45:16.577Z,98821.91
2023-01-20T15:47:26.137Z,98818.59
2023-01-20T15:49:31.860Z,98821.00
2023-01-20T15:51:37.330Z,98820.94
2023-01-20T15:53:42.883Z,98825.81
2023-01-20T15:55:51.791Z,98827.44
2023-01-20T15:57:57.011Z,98830.69
2023-01-20T16:00:02.425Z,98830.66
2023-01-20T16:02:24.784Z,98835.63
2023-01-20T16:04:31.684Z,98828.88
2023-01-20T16:06:38.050Z,98836.22
2023-01-20T16:08:43.797Z,98837.00
2023-01-20T16:10:49.673Z,98837.72
2023-01-20T16:12:54.596Z,98845.94
2023-01-20T16:15:00.433Z,98842.53
2023-01-20T16:17:05.711Z,98855.69
2023-01-20T16:19:15.722Z,98853.25
2023-01-20T16:21:22.495Z,98858.09
2023-01-20T16:23:27.372Z,98867.16
2023-01-20T16:25:32.822Z,98870.44
2023-01-20T16:27:39.175Z,98868.78
2023-01-20T16:29:44.558Z,98867.09
2023-01-20T16:31:49.850Z,98876.97
2023-01-20T16:33:55.633Z,98877.78
2023-01-20T16:36:03.076Z,98881.09
2023-01-20T16:38:07.974Z,98883.56
2023-01-20T16:40:17.200Z,98886.09
2023-01-20T16:42:22.369Z,98891.06
2023-01-20T16:44:28.249Z,98888.63
2023-01-20T16:46:34.850Z,98887.84
2023-01-20T16:48:39.695Z,98891.22
2023-01-20T16:50:47.765Z,98897.00
2023-01-20T16:52:55.828Z,98900.31
2023-01-20T16:55:02.161Z,98904.50
2023-01-20T16:57:07.645Z,98905.44
2023-01-20T16:59:13.596Z,98911.28
2023-01-20T17:01:22.172Z,98916.28
2023-01-20T17:03:29.566Z,98914.66
2023-01-20T17:05:35.133Z,98924.66
2023-01-20T17:07:40.594Z,98916.31
2023-01-20T17:09:48.212Z,98921.28
2023-01-20T17:11:53.091Z,98918.88
2023-01-20T17:13:59.157Z,98925.47
2023-01-20T17:16:07.791Z,98925.47
2023-01-20T17:18:13.517Z,98929.56
2023-01-20T17:20:19.875Z,98930.38
2023-01-20T17:22:26.137Z,98930.34
2023-01-20T17:24:33.029Z,98938.59
2023-01-20T17:26:41.436Z,98942.69
2023-01-20T17:28:46.817Z,98941.13
2023-01-20T17:30:51.938Z,98939.47
2023-01-20T17:32:57.175Z,98941.06
2023-01-20T17:35:02.730Z,98943.47
2023-01-20T17:37:08.127Z,98947.56
2023-01-20T17:39:14.325Z,98948.44
2023-01-20T17:41:19.875Z,98945.94
2023-01-20T17:43:28.430Z,98954.16
2023-01-20T17:45:35.270Z,98954.19
2023-01-20T17:47:41.097Z,98951.72
2023-01-20T17:49:46.878Z,98950.06
2023-01-20T17:51:51.716Z,98948.41
2023-01-20T17:53:57.812Z,98955.53
2023-01-20T17:56:12.504Z,98954.47
2023-01-20T17:58:18.620Z,98963.28
2023-01-20T18:00:27.665Z,98968.81
2023-01-20T18:02:33.214Z,98966.84
2023-01-20T18:04:39.247Z,98975.66
2023-01-20T18:06:44.143Z,98972.22
2023-01-20T18:08:55.117Z,98976.06
2023-01-20T18:11:06.184Z,98981.72
2023-01-20T18:13:11.131Z,98975.78
2023-01-20T18:15:16.374Z,98977.22
2023-01-20T18:17:24.286Z,98986.16
2023-01-20T18:19:29.917Z,98985.22
2023-01-20T18:21:37.843Z,98994.97
2023-01-20T18:23:43.685Z,98995.63
2023-01-20T18:25:48.587Z,98994.63
2023-01-20T18:27:53.911Z,98993.66
2023-01-20T18:29:58.958Z,98992.72
2023-01-20T18:32:04.238Z,98997.53
2023-01-20T18:34:15.911Z,98993.22
2023-01-20T18:36:24.342Z,98994.78
2023-01-20T18:38:29.200Z,99005.50
2023-01-20T18:40:34.559Z,99000.38
2023-01-20T18:42:39.464Z,99002.78
2023-01-20T18:44:44.360Z,98999.38
2023-01-20T18:46:49.535Z,99005.09
2023-01-20T18:48:55.524Z,99009.84
2023-01-20T18:51:04.354Z,99014.53
2023-01-20T18:53:09.214Z,99024.31
2023-01-20T18:55:14.153Z,99026.91
2023-01-20T18:57:19.136Z,99027.00
2023-01-20T18:59:24.034Z,99026.13
2023-01-20T19:01:32.583Z,99031.84
2023-01-20T19:03:39.617Z,99030.22
2023-01-20T19:05:44.959Z,99031.84
2023-01-20T19:07:54.513Z,99036.69
2023-01-20T19:09:59.504Z,99035.69
2023-01-20T19:12:04.763Z,99039.72
2023-01-20T19:14:11.679Z,99044.47
2023-01-20T19:16:16.851Z,99042.56
2023-01-20T19:18:21.836Z,99046.34
2023-01-20T19:20:26.811Z,99056.97
2023-01-20T19:22:32.599Z,99048.03
2023-01-20T19:24:40.246Z,99044.50
2023-01-20T19:26:45.218Z,99047.06
2023-01-20T19:28:59.950Z,99052.56
2023-01-20T19:31:09.938Z,99052.31
2023-01-20T19:33:16.206Z,99053.78
2023-01-20T19:35:21.164Z,99053.72
2023-01-20T19:37:26.080Z,99061.28
2023-01-20T19:39:31.013Z,99057.22
2023-01-20T19:41:39.585Z,99053.78
2023-01-20T19:43:45.140Z,99062.34
2023-01-20T19:45:50.263Z,99067.34
2023-01-20T19:47:55.933Z,99057.50
2023-01-20T19:50:01.283Z,99068.75
2023-01-20T19:52:06.607Z,99070.53
2023-01-20T19:54:14.814Z,99072.47
2023-01-20T19:56:22.253Z,99081.50
2023-01-20T19:58:29.753Z,99077.41
2023-01-20T20:00:34.760Z,99082.41
2023-01-20T20:02:41.429Z,99081.50
2023-01-20T20:04:46.427Z,99075.91
2023-01-20T20:06:51.309Z,99086.69
2023-01-20T20:09:01.271Z,99088.88
2023-01-20T20:11:06.233Z,99082.16
2023-01-20T20:13:11.107Z,99088.66
2023-01-20T20:15:18.702Z,99087.69
2023-01-20T20:17:25.681Z,99089.41
2023-01-20T20:19:30.628Z,99086.91
2023-01-20T20:21:37.262Z,99092.00
2023-01-20T20:23:42.114Z,99103.25
2023-01-20T20:25:53.893Z,99098.13
2023-01-20T20:27:59.096Z,99102.06
2023-01-20T20:30:06.925Z,99106.19
2023-01-20T20:32:14.568Z,99102.78
2023-01-20T20:34:21.548Z,99105.25
2023-01-20T20:36:28.377Z,99102.88
2023-01-20T20:38:34.328Z,99105.25
2023-01-20T20:40:40.014Z,99105.25
2023-01-20T20:42:44.855Z,99109.38
2023-01-20T20:44:50.141Z,99110.88
2023-01-20T20:46:55.387Z,99114.03
2023-01-20T20:49:04.084Z,99120.63
2023-01-20T20:51:10.342Z,99118.94
2023-01-20T20:53:15.374Z,99124.44
2023-01-20T20:55:20.607Z,99121.69
2023-01-20T20:57:25.894Z,99126.63
2023-01-20T20:59:30.760Z,99136.28
2023-01-20T21:01:36.953Z,99132.69
2023-01-20T21:03:42.357Z,99138.75
2023-01-20T21:05:50.681Z,99135.44
2023-01-20T21:07:55.570Z,99140.75
2023-01-20T21:10:01.375Z,99141.31
2023-01-20T21:12:07.391Z,99144.44
2023-01-20T21:14:12.324Z,99150.25
2023-01-20T21:16:22.020Z,99153.06
2023-01-20T21:18:27.458Z,99148.09
2023-01-20T21:20:33.584Z,99154.41
2023-01-20T21:22:41.061Z,99161.78
2023-01-20T21:24:46.039Z,99165.97
2023-01-20T21:26:51.028Z,99165.97
2023-01-20T21:28:56.188Z,99171.28
2023-01-20T21:31:01.637Z,99170.06
2023-01-20T21:33:07.011Z,99181.19
2023-01-20T21:35:12.933Z,99181.00
2023-01-20T21:37:22.057Z,99184.72
2023-01-20T21:39:29.917Z,99191.41
2023-01-20T21:41:34.793Z,99192.63
2023-01-20T21:43:55.372Z,99199.22
2023-01-20T21:46:00.237Z,99190.09
2023-01-20T21:48:25.377Z,99197.69
2023-01-20T21:50:43.111Z,99194.72
2023-01-20T21:52:45.870Z,99202.38
2023-01-20T21:54:53.170Z,99195.56
2023-01-20T21:56:58.393Z,99198.50
2023-01-20T21:59:03.312Z,99197.59
2023-01-20T22:01:08.977Z,99208.00
2023-01-20T22:03:13.809Z,99203.44
2023-01-20T22:05:19.325Z,99217.66
2023-01-20T22:07:25.132Z,99212.94
2023-01-20T22:09:29.994Z,99214.69
2023-01-20T22:11:38.429Z,99211.06
2023-01-20T22:13:44.202Z,99222.81
2023-01-20T22:15:50.091Z,99226.31
2023-01-20T22:17:55.331Z,99224.88
2023-01-20T22:20:00.228Z,99230.94
2023-01-20T22:22:06.547Z,99233.63
2023-01-20T22:24:12.744Z,99234.66
2023-01-20T22:26:17.978Z,99248.84
2023-01-20T22:28:26.225Z,99246.03
2023-01-20T22:30:31.148Z,99253.06
2023-01-20T22:32:36.315Z,99252.09
2023-01-20T22:34:41.504Z,99255.91
2023-01-20T22:36:46.710Z,99258.56
2023-01-20T22:38:53.846Z,99265.28
2023-01-20T22:41:04.412Z,99266.03
2023-01-20T22:43:09.342Z,99266.22
2023-01-20T22:45:16.989Z,99268.84
2023-01-20T22:47:22.178Z,99274.19
2023-01-20T22:49:27.074Z,99276.00
2023-01-20T22:51:33.268Z,99276.84
2023-01-20T22:53:39.259Z,99271.75
2023-01-20T22:56:00.049Z,99278.41
2023-01-20T22:58:05.940Z,99275.31
2023-01-20T23:00:13.821Z,99276.16
2023-01-20T23:02:21.632Z,99270.50
2023-01-20T23:04:27.442Z,99268.09
2023-01-20T23:06:34.816Z,99274.56
2023-01-20T23:08:40.651Z,99276.50
2023-01-20T23:10:51.702Z,99277.72
2023-01-20T23:12:56.923Z,99280.97
2023-01-20T23:15:02.643Z,99286.25
2023-01-20T23:17:07.506Z,99288.78
2023-01-20T23:19:16.996Z,99290.50
2023-01-20T23:21:22.729Z,99292.16
2023-01-20T23:23:29.561Z,99288.59
2023-01-20T23:25:34.520Z,99289.75
2023-01-20T23:27:39.461Z,99286.25
2023-01-20T23:29:45.109Z,99295.28
2023-01-20T23:31:50.044Z,99299.69
2023-01-20T23:34:00.592Z,99293.03
2023-01-20T23:36:15.130Z,99293.66
2023-01-20T23:38:20.288Z,99296.47
2023-01-20T23:40:26.328Z,99300.59
2023-01-20T23:42:31.191Z,99298.41
2023-01-20T23:44:36.098Z,99300.63
2023-01-20T23:46:41.009Z,99303.72
2023-01-20T23:48:48.347Z,99307.63
2023-01-20T23:50:54.015Z,99311.13
2023-01-20T23:53:02.887Z,99319.03
2023-01-20T23:55:09.988Z,99319.66
2023-01-20T23:57:14.878Z,99317.03
2023-01-20T23:59:20.434Z,99326.38
